Time;durP1;ratioP1;P1;durP2;ratioP2;P2;SDS_P1;SDS_P2;PMS_P1;PMS_P2;Temp;Humidity;BMP_temperature;BMP_pressure;BME280_temperature;BME280_humidity;BME280_pressure;Samples;Min_cycle;Max_cycle;Signal;HPM_P1;HPM_P2
2022/06/08 00:01:16;;;;;;;2.60;1.45;;;;;;;13.93;84.68;100428.88;6049477;28;20030;-66
2022/06/08 00:04:13;;;;;;;2.40;1.50;;;;;;;13.96;84.89;100422.38;6051712;28;20034;-67
2022/06/08 00:07:08;;;;;;;3.75;1.73;;;;;;;13.99;84.44;100422.03;6050096;28;20061;-66
2022/06/08 00:10:04;;;;;;;7.40;2.10;;;;;;;14.07;84.85;100409.47;6050716;28;20048;-66
2022/06/08 00:13:00;;;;;;;4.22;1.90;;;;;;;14.00;84.70;100411.16;6051319;28;20814;-66
2022/06/08 00:15:56;;;;;;;4.00;1.90;;;;;;;13.95;84.68;100410.03;6055133;28;20042;-66
2022/06/08 00:18:51;;;;;;;3.88;2.08;;;;;;;13.95;84.58;100420.69;6061827;28;20021;-67
2022/06/08 00:21:47;;;;;;;3.60;2.00;;;;;;;13.99;84.71;100412.19;6050914;28;20034;-66
2022/06/08 00:24:42;;;;;;;3.27;2.00;;;;;;;13.84;85.13;100407.75;6050752;28;20033;-66
2022/06/08 00:27:37;;;;;;;3.43;2.03;;;;;;;13.85;85.73;100415.59;6051014;28;20295;-66
2022/06/08 00:30:33;;;;;;;2.60;1.67;;;;;;;14.07;85.91;100406.81;6060940;28;20138;-66
2022/06/08 00:33:28;;;;;;;2.50;1.80;;;;;;;14.31;85.66;100400.47;6050914;28;20030;-66
2022/06/08 00:36:24;;;;;;;4.05;1.65;;;;;;;14.57;83.04;100406.31;6050566;28;20034;-66
2022/06/08 00:39:19;;;;;;;3.50;1.70;;;;;;;14.61;82.56;100406.78;6050573;28;20080;-66
2022/06/08 00:42:15;;;;;;;6.90;2.00;;;;;;;14.19;82.77;100397.38;6049628;28;20037;-66
2022/06/08 00:45:13;;;;;;;4.13;2.40;;;;;;;13.86;84.64;100414.56;6051107;28;20269;-66
2022/06/08 00:48:09;;;;;;;6.50;3.15;;;;;;;13.68;86.32;100414.00;6050218;28;20038;-66
2022/06/08 00:51:04;;;;;;;4.90;3.00;;;;;;;13.46;86.64;100418.25;6049821;28;20559;-66
2022/06/08 00:54:02;;;;;;;4.45;2.83;;;;;;;13.39;87.89;100409.28;6065343;28;20277;-66
2022/06/08 00:57:14;;;;;;;3.67;2.08;;;;;;;13.40;87.84;100415.47;6051695;28;20053;-66
2022/06/08 01:00:13;;;;;;;5.47;2.50;;;;;;;13.70;86.43;100407.50;6065171;28;20038;-66
2022/06/08 01:03:11;;;;;;;4.85;2.53;;;;;;;13.29;87.21;100410.50;6049688;28;20383;-66
2022/06/08 01:06:14;;;;;;;4.97;2.00;;;;;;;13.13;88.13;100404.19;6050197;28;20050;-66
2022/06/08 01:09:34;;;;;;;3.35;1.85;;;;;;;13.41;88.13;100401.13;6050484;28;20404;-66
2022/06/08 01:12:29;;;;;;;4.85;2.17;;;;;;;13.79;87.78;100391.47;6050848;28;20045;-66
2022/06/08 01:15:28;;;;;;;4.33;2.00;;;;;;;14.05;86.46;100392.00;6050072;28;20045;-66
2022/06/08 01:18:23;;;;;;;3.30;2.03;;;;;;;13.64;86.62;100386.06;6065009;28;20108;-66
2022/06/08 01:21:22;;;;;;;5.05;2.10;;;;;;;13.57;86.99;100398.41;6048998;28;20026;-66
2022/06/08 01:24:17;;;;;;;3.78;2.20;;;;;;;13.31;87.63;100400.50;6050227;28;20049;-66
2022/06/08 01:27:21;;;;;;;3.47;1.90;;;;;;;13.38;87.94;100404.13;6048954;28;20177;-66
2022/06/08 01:30:27;;;;;;;8.30;3.90;;;;;;;13.17;88.52;100394.03;6051623;28;20386;-66
2022/06/08 01:33:30;;;;;;;;;;;;;;;13.46;88.55;100388.13;6064808;28;20445;-66
2022/06/08 01:36:52;;;;;;;15.20;6.47;;;;;;;14.03;88.13;100381.50;6064076;28;20280;-66
2022/06/08 01:40:04;;;;;;;10.60;4.50;;;;;;;13.92;86.11;100373.06;6048954;28;20033;-66
2022/06/08 01:43:30;;;;;;;11.38;4.15;;;;;;;14.25;84.43;100369.19;6049643;28;20026;-65
2022/06/08 01:46:31;;;;;;;8.18;3.78;;;;;;;14.46;84.76;100365.91;5992971;28;20042;-65
2022/06/08 01:49:55;;;;;;;7.28;2.75;;;;;;;14.51;84.70;100374.19;6049222;28;20044;-66
2022/06/08 01:52:59;;;;;;;4.65;2.55;;;;;;;14.16;83.95;100370.22;6052503;28;20045;-66
2022/06/08 01:55:57;;;;;;;7.28;2.40;;;;;;;13.97;84.84;100360.06;6048288;28;20512;-66
2022/06/08 01:59:23;;;;;;;4.97;2.30;;;;;;;13.84;85.13;100360.63;6048646;28;20640;-66
2022/06/08 02:02:41;;;;;;;5.55;2.75;;;;;;;13.75;85.84;100364.34;6048717;28;20034;-66
2022/06/08 02:05:45;;;;;;;9.10;2.75;;;;;;;14.36;86.04;100354.63;6064752;28;20488;-66
2022/06/08 02:08:53;;;;;;;5.47;2.05;;;;;;;14.42;83.71;100356.56;6057889;28;20428;-66
2022/06/08 02:11:55;;;;;;;3.55;2.10;;;;;;;14.60;82.70;100341.91;6072346;28;20588;-65
2022/06/08 02:14:57;;;;;;;3.95;2.17;;;;;;;14.47;82.91;100340.84;6048132;28;20037;-65
2022/06/08 02:17:55;;;;;;;3.42;2.25;;;;;;;14.55;83.02;100348.78;6047866;28;20371;-65
2022/06/08 02:20:55;;;;;;;4.53;2.38;;;;;;;14.90;82.86;100348.09;6051611;28;20040;-66
2022/06/08 02:23:55;;;;;;;3.15;1.90;;;;;;;15.00;83.06;100351.34;6059828;28;20096;-66
2022/06/08 02:26:58;;;;;;;3.35;2.13;;;;;;;14.98;81.04;100339.19;6048644;28;20117;-65
2022/06/08 02:30:09;;;;;;;3.67;2.60;;;;;;;14.61;82.03;100343.56;6064327;28;20034;-66
2022/06/08 02:36:38;;;;;;;5.85;2.40;;;;;;;14.17;84.01;100339.91;6049054;28;20041;-66
2022/06/08 02:39:42;;;;;;;4.50;2.50;;;;;;;14.24;84.46;100331.00;6049254;28;20095;-65
2022/06/08 02:42:44;;;;;;;3.90;2.30;;;;;;;14.28;84.96;100332.31;6048037;28;20033;-65
2022/06/08 02:45:44;;;;;;;4.32;1.95;;;;;;;14.50;85.24;100340.50;6047650;28;20030;-65
2022/06/08 02:48:39;;;;;;;6.57;2.63;;;;;;;14.32;84.51;100338.16;6048913;28;20101;-65
2022/06/08 02:51:35;;;;;;;5.50;2.30;;;;;;;14.26;84.15;100329.00;6050224;28;20041;-66
2022/06/08 02:54:30;;;;;;;10.20;4.28;;;;;;;14.08;85.21;100341.78;6064436;28;20022;-65
2022/06/08 02:57:37;;;;;;;4.17;2.50;;;;;;;14.23;85.11;100340.03;6049276;28;20038;-65
2022/06/08 03:00:40;;;;;;;4.72;2.45;;;;;;;14.11;85.79;100340.59;6063307;28;20033;-65
2022/06/08 03:03:42;;;;;;;4.72;2.38;;;;;;;14.22;84.78;100327.69;6069144;28;20042;-66
2022/06/08 03:06:55;;;;;;;4.05;2.67;;;;;;;13.98;85.13;100330.53;6054096;28;20042;-65
2022/06/08 03:09:51;;;;;;;5.15;3.35;;;;;;;13.92;85.88;100327.75;6051468;28;20506;-65
2022/06/08 03:12:53;;;;;;;6.50;2.80;;;;;;;14.02;86.56;100317.69;6052246;28;20079;-65
2022/06/08 03:15:52;;;;;;;5.72;2.63;;;;;;;14.13;85.91;100323.41;6051795;28;20616;-65
2022/06/08 03:18:47;;;;;;;4.75;2.65;;;;;;;14.04;86.39;100321.84;6056726;28;20037;-65
2022/06/08 03:21:43;;;;;;;4.37;2.90;;;;;;;14.01;86.17;100330.19;6051719;28;20041;-65
2022/06/08 03:24:38;;;;;;;3.55;2.40;;;;;;;14.25;86.94;100327.34;6052903;28;20030;-65
2022/06/08 03:27:36;;;;;;;6.50;2.93;;;;;;;14.49;84.96;100338.81;6052443;28;20083;-66
2022/06/08 03:30:32;;;;;;;6.88;2.60;;;;;;;14.60;84.95;100341.91;6054389;28;20029;-66
2022/06/08 03:33:27;;;;;;;3.93;2.50;;;;;;;14.61;83.82;100348.06;6056260;28;20030;-65
2022/06/08 03:36:22;;;;;;;4.60;2.57;;;;;;;14.62;84.53;100339.06;6052054;28;20049;-66
2022/06/08 03:39:18;;;;;;;4.73;2.50;;;;;;;14.85;83.76;100347.84;6052371;28;20500;-66
2022/06/08 03:42:13;;;;;;;5.30;2.57;;;;;;;14.99;82.53;100351.53;6050924;28;20053;-66
2022/06/08 03:45:09;;;;;;;5.47;2.63;;;;;;;15.06;82.61;100342.59;6052886;28;20038;-65
2022/06/08 03:48:06;;;;;;;4.70;2.45;;;;;;;15.05;82.10;100340.13;6052300;28;20261;-65
2022/06/08 03:51:01;;;;;;;5.45;3.08;;;;;;;15.09;82.66;100342.22;6050430;28;20512;-65
2022/06/08 03:54:03;;;;;;;4.82;2.83;;;;;;;15.01;82.93;100339.66;6051846;28;20034;-66
2022/06/08 03:57:00;;;;;;;6.05;3.08;;;;;;;15.02;83.33;100352.00;6051509;28;20037;-65
2022/06/08 03:59:56;;;;;;;4.88;2.97;;;;;;;15.32;82.83;100337.63;6051363;28;20034;-66
2022/06/08 04:02:51;;;;;;;6.25;2.70;;;;;;;15.35;82.78;100337.25;6057150;28;20044;-66
2022/06/08 04:05:47;;;;;;;6.15;3.15;;;;;;;15.30;82.95;100328.94;6050089;28;20053;-65
2022/06/08 04:08:42;;;;;;;5.67;3.27;;;;;;;15.22;83.84;100338.94;6053493;28;20040;-65
2022/06/08 04:11:37;;;;;;;6.00;2.73;;;;;;;15.34;84.07;100337.44;6050815;28;20277;-66
2022/06/08 04:14:33;;;;;;;4.60;2.92;;;;;;;15.51;83.51;100338.09;6050485;28;20091;-65
2022/06/08 04:17:29;;;;;;;8.40;3.30;;;;;;;15.43;84.04;100345.19;6051734;28;20500;-65
2022/06/08 04:20:24;;;;;;;6.70;2.40;;;;;;;15.44;84.16;100344.13;6050453;28;20390;-65
2022/06/08 04:23:21;;;;;;;3.93;2.53;;;;;;;15.53;83.90;100338.72;6054505;28;20041;-66
2022/06/08 04:26:18;;;;;;;4.55;2.70;;;;;;;15.42;85.31;100338.16;6053713;28;20473;-66
2022/06/08 04:29:13;;;;;;;4.13;2.22;;;;;;;15.68;84.04;100342.22;6051406;28;20041;-66
2022/06/08 04:32:10;;;;;;;4.95;2.60;;;;;;;15.58;84.04;100347.00;6050111;28;20540;-65
2022/06/08 04:35:07;;;;;;;4.10;2.50;;;;;;;15.56;84.55;100344.53;6051077;28;20065;-66
2022/06/08 04:38:02;;;;;;;3.72;2.40;;;;;;;15.59;84.87;100348.66;6065808;28;20030;-66
2022/06/08 04:40:59;;;;;;;4.33;2.10;;;;;;;15.56;84.48;100349.88;6050965;28;20036;-66
2022/06/08 04:43:55;;;;;;;4.40;2.30;;;;;;;15.51;85.31;100351.44;6051198;28;20863;-66
2022/06/08 04:46:50;;;;;;;3.92;2.33;;;;;;;15.38;86.01;100347.53;6050060;28;20030;-66
2022/06/08 04:49:46;;;;;;;4.20;2.33;;;;;;;15.35;85.86;100347.94;6050709;28;20136;-65
2022/06/08 04:52:41;;;;;;;3.63;2.43;;;;;;;15.39;86.07;100351.06;6049546;28;20032;-66
2022/06/08 04:55:36;;;;;;;4.25;2.35;;;;;;;15.55;85.77;100342.03;6050086;28;20026;-66
2022/06/08 04:58:32;;;;;;;3.57;2.40;;;;;;;15.48;85.24;100339.28;6052390;28;20108;-65
2022/06/08 05:01:27;;;;;;;5.75;2.70;;;;;;;15.53;85.75;100338.72;6049550;28;20056;-66
2022/06/08 05:04:23;;;;;;;4.20;2.13;;;;;;;15.68;85.54;100342.22;6050392;28;20037;-66
2022/06/08 05:07:18;;;;;;;3.73;2.40;;;;;;;15.74;85.41;100330.75;6050603;28;20273;-66
2022/06/08 05:10:14;;;;;;;3.87;2.27;;;;;;;15.83;84.88;100340.31;6049656;28;20041;-66
2022/06/08 05:13:10;;;;;;;4.88;2.40;;;;;;;15.85;84.46;100336.44;6053974;28;20026;-66
2022/06/08 05:16:06;;;;;;;4.60;2.55;;;;;;;15.72;84.58;100316.75;6049885;28;20034;-66
2022/06/08 05:19:02;;;;;;;3.45;2.10;;;;;;;15.92;85.31;100339.19;6049818;28;20029;-66
2022/06/08 05:21:58;;;;;;;4.50;2.40;;;;;;;16.02;85.09;100337.03;6049460;28;20584;-66
2022/06/08 05:24:54;;;;;;;4.57;2.20;;;;;;;16.32;83.68;100325.16;6049444;28;20040;-66
2022/06/08 05:27:49;;;;;;;3.72;2.30;;;;;;;16.45;83.18;100325.28;6052221;28;20025;-66
2022/06/08 05:30:45;;;;;;;4.00;2.50;;;;;;;16.87;81.58;100318.22;6052221;28;20037;-66
2022/06/08 05:33:40;;;;;;;4.85;2.75;;;;;;;17.23;79.96;100318.81;6050667;28;20269;-66
2022/06/08 05:36:35;;;;;;;4.78;2.10;;;;;;;17.87;78.50;100313.94;6049059;28;20030;-66
2022/06/08 05:39:31;;;;;;;4.10;2.40;;;;;;;18.58;74.40;100317.75;6049032;28;20037;-66
2022/06/08 05:42:26;;;;;;;4.67;2.60;;;;;;;19.58;69.57;100312.75;6048780;28;20039;-66
2022/06/08 05:45:27;;;;;;;7.53;2.50;;;;;;;19.81;68.79;100320.28;6049196;28;20112;-66
2022/06/08 05:48:23;;;;;;;4.40;2.65;;;;;;;19.74;68.66;100326.75;6052111;28;20280;-66
2022/06/08 05:51:18;;;;;;;5.67;2.77;;;;;;;19.91;68.08;100312.59;6049062;28;20057;-66
2022/06/08 05:54:14;;;;;;;3.87;2.70;;;;;;;20.49;67.26;100321.28;6049432;28;20269;-66
2022/06/08 05:57:10;;;;;;;4.20;2.35;;;;;;;21.09;65.81;100308.13;6049806;28;20480;-66
2022/06/08 06:00:07;;;;;;;6.28;3.35;;;;;;;21.32;63.29;100317.19;6048844;28;20037;-66
2022/06/08 06:03:03;;;;;;;5.60;3.47;;;;;;;21.51;61.63;100319.88;6049424;28;20034;-66
2022/06/08 06:05:59;;;;;;;5.68;3.58;;;;;;;21.05;63.92;100320.38;6064714;28;20049;-66
2022/06/08 06:08:54;;;;;;;5.13;2.92;;;;;;;20.66;65.59;100322.41;6049308;28;20048;-66
2022/06/08 06:11:50;;;;;;;5.63;3.40;;;;;;;19.93;67.84;100329.34;6048781;28;20037;-66
2022/06/08 06:14:46;;;;;;;5.65;4.00;;;;;;;19.21;69.50;100328.81;6049439;28;20042;-66
2022/06/08 06:17:41;;;;;;;7.75;4.30;;;;;;;19.30;70.58;100332.91;6049518;28;20040;-67
2022/06/08 06:20:37;;;;;;;6.33;4.30;;;;;;;19.67;70.48;100334.03;6049764;28;20045;-66
2022/06/08 06:23:33;;;;;;;6.85;4.28;;;;;;;20.11;67.02;100326.72;6047895;28;20836;-66
2022/06/08 06:26:29;;;;;;;6.47;4.30;;;;;;;19.62;68.63;100331.19;6049418;28;20038;-66
2022/06/08 06:29:25;;;;;;;7.80;3.88;;;;;;;19.19;69.32;100338.94;6049073;28;20045;-66
2022/06/08 06:32:24;;;;;;;6.77;3.47;;;;;;;19.01;70.63;100348.50;6048775;28;20100;-66
2022/06/08 06:35:28;;;;;;;5.60;3.45;;;;;;;18.97;71.17;100347.25;6049095;28;20276;-66
2022/06/08 06:38:23;;;;;;;5.07;3.30;;;;;;;19.25;70.23;100348.84;6054431;28;20030;-66
2022/06/08 06:41:19;;;;;;;3.53;2.67;;;;;;;19.41;71.03;100343.03;6053186;28;20083;-66
2022/06/08 06:44:15;;;;;;;4.97;3.28;;;;;;;19.57;68.85;100337.19;6068762;28;20045;-66
2022/06/08 06:47:11;;;;;;;3.35;2.33;;;;;;;19.13;70.95;100347.84;6053775;28;20034;-66
2022/06/08 06:50:08;;;;;;;6.20;3.05;;;;;;;18.89;70.91;100333.19;6052467;28;20488;-66
2022/06/08 06:53:03;;;;;;;6.32;3.00;;;;;;;18.82;72.08;100343.16;6053497;28;20481;-66
2022/06/08 06:55:58;;;;;;;5.15;3.50;;;;;;;19.36;71.31;100334.75;6055271;28;20068;-66
2022/06/08 06:58:54;;;;;;;6.20;3.00;;;;;;;20.24;67.35;100328.56;6053338;28;20049;-66
2022/06/08 07:01:49;;;;;;;4.30;2.53;;;;;;;20.62;65.82;100332.00;6052843;28;20422;-66
2022/06/08 07:04:44;;;;;;;5.40;2.83;;;;;;;21.17;62.69;100338.28;6053274;28;20040;-66
2022/06/08 07:07:40;;;;;;;4.32;2.60;;;;;;;21.58;60.93;100321.41;6053266;28;20345;-66
2022/06/08 07:10:36;;;;;;;4.67;3.40;;;;;;;21.60;60.75;100313.94;6053446;28;20044;-66
2022/06/08 07:13:32;;;;;;;4.55;2.75;;;;;;;22.03;60.18;100323.75;6056757;28;20109;-66
2022/06/08 07:16:27;;;;;;;3.55;2.58;;;;;;;21.73;60.12;100318.34;6053361;28;20091;-66
2022/06/08 07:19:23;;;;;;;4.27;3.17;;;;;;;21.53;60.44;100323.97;6052896;28;20045;-66
2022/06/08 07:22:18;;;;;;;5.07;3.15;;;;;;;21.46;61.22;100331.34;6052050;28;20032;-66
2022/06/08 07:25:14;;;;;;;4.10;3.23;;;;;;;21.02;61.96;100335.13;6052975;28;20025;-66
2022/06/08 07:28:10;;;;;;;4.70;3.25;;;;;;;20.86;62.42;100330.31;6053501;28;20036;-66
2022/06/08 07:31:05;;;;;;;5.63;3.10;;;;;;;20.73;62.46;100317.78;6052002;28;20042;-66
2022/06/08 07:34:01;;;;;;;4.35;3.38;;;;;;;20.35;63.81;100321.63;6052622;28;20061;-66
2022/06/08 07:36:57;;;;;;;4.60;2.95;;;;;;;19.92;64.08;100303.44;6052714;28;20041;-66
2022/06/08 07:39:52;;;;;;;6.07;3.40;;;;;;;19.93;64.32;100301.59;6052586;28;20037;-66
2022/06/08 07:42:47;;;;;;;4.55;3.13;;;;;;;20.13;64.99;100305.81;6051629;28;20061;-66
2022/06/08 07:45:43;;;;;;;5.40;3.87;;;;;;;20.11;64.10;100299.00;6053580;28;20088;-65
2022/06/08 07:51:55;;;;;;;5.10;3.15;;;;;;;20.63;62.03;100284.28;6050885;28;20030;-66
2022/06/08 07:54:50;;;;;;;5.55;3.13;;;;;;;20.56;62.95;100283.53;6052048;28;20061;-66
2022/06/08 07:57:47;;;;;;;4.63;3.00;;;;;;;20.18;64.77;100289.84;6052134;28;20113;-67
2022/06/08 08:00:46;;;;;;;5.13;3.22;;;;;;;20.05;64.45;100289.94;6051918;28;20025;-66
2022/06/08 08:03:42;;;;;;;4.35;2.88;;;;;;;19.90;65.58;100286.69;6052466;28;20108;-66
2022/06/08 08:06:37;;;;;;;5.20;3.10;;;;;;;19.59;65.96;100281.31;6051469;28;20034;-65
2022/06/08 08:09:34;;;;;;;4.80;3.17;;;;;;;19.86;66.04;100276.59;6051636;28;20038;-66
2022/06/08 08:12:30;;;;;;;5.35;3.67;;;;;;;20.25;63.65;100267.44;6051127;28;20036;-66
2022/06/08 08:15:26;;;;;;;5.00;3.20;;;;;;;21.20;61.38;100265.03;6051715;28;20037;-66
2022/06/08 08:18:21;;;;;;;5.65;3.40;;;;;;;21.25;61.24;100254.38;6052744;28;20049;-66
2022/06/08 08:21:16;;;;;;;4.47;3.17;;;;;;;21.36;58.82;100259.00;6050881;28;20034;-66
2022/06/08 08:24:12;;;;;;;4.83;3.37;;;;;;;21.21;57.46;100253.19;6051388;28;20108;-66
2022/06/08 08:27:07;;;;;;;4.70;3.35;;;;;;;21.16;58.94;100244.97;6051533;28;20335;-66
2022/06/08 08:30:04;;;;;;;5.40;3.47;;;;;;;21.92;59.38;100242.47;6050952;28;20394;-66
2022/06/08 08:33:00;;;;;;;6.60;3.97;;;;;;;21.75;57.97;100251.44;6051196;28;20026;-66
2022/06/08 08:35:56;;;;;;;5.45;3.95;;;;;;;22.05;58.53;100246.00;6052515;28;20030;-66
2022/06/08 08:38:51;;;;;;;3.73;2.53;;;;;;;22.33;54.37;100243.47;6051100;28;20524;-66
2022/06/08 08:45:11;;;;;;;4.38;2.70;;;;;;;23.00;54.90;100244.75;6064639;28;20081;-66
2022/06/08 08:48:15;;;;;;;6.13;3.22;;;;;;;22.43;52.85;100231.03;6049915;28;20084;-66
2022/06/08 08:51:17;;;;;;;5.85;3.72;;;;;;;22.63;53.29;100230.72;6051849;28;20038;-66
2022/06/08 08:54:34;;;;;;;5.35;3.33;;;;;;;22.74;52.77;100224.47;6057680;28;20060;-66
2022/06/08 08:57:34;;;;;;;4.78;2.63;;;;;;;22.45;53.51;100228.06;6050720;28;20067;-66
2022/06/08 09:00:37;;;;;;;5.93;3.83;;;;;;;21.47;56.29;100208.03;6065156;28;20034;-66
2022/06/08 09:03:42;;;;;;;7.22;3.45;;;;;;;21.92;55.98;100215.47;6050171;28;20030;-66
2022/06/08 09:06:39;;;;;;;8.18;5.05;;;;;;;22.38;54.20;100216.56;6049408;28;20466;-66
2022/06/08 09:09:34;;;;;;;4.05;3.47;;;;;;;22.50;53.58;100212.00;6051778;28;20041;-66
2022/06/08 09:12:30;;;;;;;4.90;3.30;;;;;;;22.78;52.89;100211.28;6049627;28;20054;-66
2022/06/08 09:15:44;;;;;;;4.57;2.97;;;;;;;22.79;53.22;100210.22;6050727;28;20061;-67
2022/06/08 09:18:41;;;;;;;8.10;4.07;;;;;;;22.75;51.35;100209.03;6050244;28;20376;-66
2022/06/08 09:21:36;;;;;;;4.43;2.40;;;;;;;22.73;51.88;100209.28;6049592;28;20492;-66
2022/06/08 09:24:36;;;;;;;3.97;2.30;;;;;;;22.95;53.72;100209.50;6050867;28;20034;-66
2022/06/08 09:27:34;;;;;;;4.47;3.20;;;;;;;22.73;55.16;100200.34;6050336;28;20331;-66
2022/06/08 09:30:47;;;;;;;3.50;2.70;;;;;;;22.73;54.86;100212.00;6049133;28;20105;-66
2022/06/08 09:33:42;;;;;;;3.38;2.70;;;;;;;22.63;54.00;100205.53;6049845;28;20034;-66
2022/06/08 09:36:37;;;;;;;4.27;2.80;;;;;;;22.75;54.16;100192.81;6049723;28;20034;-66
2022/06/08 09:39:34;;;;;;;3.27;2.20;;;;;;;22.67;51.61;100190.47;6049407;28;20083;-66
2022/06/08 09:42:45;;;;;;;3.58;2.30;;;;;;;22.83;51.97;100197.88;6058071;28;20120;-66
2022/06/08 09:45:48;;;;;;;4.95;2.53;;;;;;;22.92;51.18;100202.66;6047983;28;20029;-66
2022/06/08 09:52:20;;;;;;;3.42;2.17;;;;;;;22.24;50.98;100186.25;6048657;28;20034;-65
2022/06/08 09:55:28;;;;;;;2.97;2.03;;;;;;;22.39;51.79;100197.41;6049603;28;20042;-65
2022/06/08 09:58:57;;;;;;;2.30;1.80;;;;;;;23.12;49.79;100194.16;6049739;28;21748;-66
2022/06/08 10:01:58;;;;;;;5.75;1.60;;;;;;;23.04;48.25;100181.00;6048812;28;20421;-66
2022/06/08 10:05:06;;;;;;;5.35;2.30;;;;;;;22.67;49.54;100169.69;6064985;28;20030;-65
2022/06/08 10:08:22;;;;;;;2.83;1.60;;;;;;;23.08;47.53;100171.34;6049630;28;20042;-66
2022/06/08 10:11:36;;;;;;;2.63;1.90;;;;;;;22.84;49.03;100169.78;6047741;28;20485;-66
2022/06/08 10:14:42;;;;;;;3.20;1.90;;;;;;;23.51;48.67;100168.94;6051742;28;20030;-65
2022/06/08 10:17:53;;;;;;;3.88;2.00;;;;;;;23.14;49.01;100170.38;6053916;28;20049;-65
2022/06/08 10:20:55;;;;;;;3.10;2.20;;;;;;;22.56;49.71;100151.56;6052257;28;20570;-66
2022/06/08 10:24:12;;;;;;;5.00;1.80;;;;;;;22.49;50.51;100162.53;6054330;28;20544;-65
2022/06/08 10:27:41;;;;;;;2.75;1.70;;;;;;;23.95;46.02;100161.84;6053992;28;20048;-66
2022/06/08 10:30:51;;;;;;;9.93;4.85;;;;;;;24.17;46.23;100149.22;6020939;28;20038;-66
2022/06/08 10:33:52;;;;;;;2.78;1.67;;;;;;;24.12;45.46;100157.25;6053890;28;20065;-66
2022/06/08 10:36:50;;;;;;;2.78;1.90;;;;;;;24.43;45.52;100155.81;6054031;28;20038;-66
2022/06/08 10:39:47;;;;;;;2.60;1.73;;;;;;;24.30;44.32;100153.44;6053635;28;20446;-66
2022/06/08 10:42:44;;;;;;;3.97;1.50;;;;;;;23.91;45.76;100154.47;6052830;28;20034;-66
2022/06/08 10:45:44;;;;;;;2.63;1.60;;;;;;;23.64;45.29;100144.25;6052419;28;20034;-66
2022/06/08 10:48:46;;;;;;;2.90;1.80;;;;;;;23.98;45.09;100157.81;6057768;28;20033;-66
2022/06/08 10:51:41;;;;;;;2.80;1.70;;;;;;;24.57;44.54;100148.94;6053587;28;20491;-66
2022/06/08 10:54:54;;;;;;;3.57;1.50;;;;;;;24.24;44.13;100143.63;6053399;28;20025;-66
2022/06/08 10:57:49;;;;;;;3.28;1.67;;;;;;;24.56;43.54;100152.75;6053619;28;20393;-66
2022/06/08 11:00:58;;;;;;;2.23;1.60;;;;;;;25.22;43.92;100137.28;6052557;28;20037;-66
2022/06/08 11:03:54;;;;;;;3.05;1.42;;;;;;;25.02;42.97;100142.47;6053485;28;20417;-66
2022/06/08 11:07:04;;;;;;;2.58;1.52;;;;;;;24.60;43.57;100143.03;6053921;28;20037;-66
2022/06/08 11:10:01;;;;;;;3.30;1.60;;;;;;;24.90;43.66;100142.59;6053350;28;20604;-66
2022/06/08 11:13:05;;;;;;;2.83;1.60;;;;;;;24.32;44.95;100140.50;6052804;28;20026;-65
2022/06/08 11:16:24;;;;;;;3.05;1.83;;;;;;;23.95;45.80;100156.41;6051879;28;20478;-66
2022/06/08 11:19:19;;;;;;;2.63;1.63;;;;;;;23.84;44.92;100137.53;6068195;28;20052;-65
2022/06/08 11:22:24;;;;;;;2.50;1.70;;;;;;;24.38;47.33;100139.47;6060220;28;20401;-66
2022/06/08 11:25:24;;;;;;;3.10;1.50;;;;;;;24.95;43.06;100141.88;6051031;28;20253;-66
2022/06/08 11:28:32;;;;;;;3.15;1.90;;;;;;;25.37;42.00;100130.09;6051158;28;20148;-66
2022/06/08 11:31:28;;;;;;;3.25;1.85;;;;;;;25.51;41.68;100129.72;6051561;28;20053;-66
2022/06/08 11:34:43;;;;;;;2.90;1.85;;;;;;;25.11;42.16;100130.91;6052479;28;20053;-66
2022/06/08 11:38:16;;;;;;;2.15;1.60;;;;;;;25.33;41.56;100123.53;6061930;28;20041;-66
2022/06/08 11:41:20;;;;;;;3.33;1.50;;;;;;;25.48;39.50;100128.31;6051497;28;20041;-66
2022/06/08 11:44:19;;;;;;;2.42;1.70;;;;;;;25.31;41.79;100122.97;6052168;28;20037;-66
2022/06/08 11:47:21;;;;;;;2.17;1.33;;;;;;;25.24;40.21;100116.94;6052372;28;20045;-67
2022/06/08 11:50:21;;;;;;;3.47;1.88;;;;;;;25.79;40.18;100124.78;6050195;28;20088;-66
2022/06/08 11:53:28;;;;;;;2.95;1.40;;;;;;;25.26;41.01;100108.53;6053146;28;20072;-66
2022/06/08 11:56:37;;;;;;;2.40;1.60;;;;;;;25.30;40.36;100112.38;6051769;28;20034;-67
2022/06/08 11:59:36;;;;;;;4.05;1.70;;;;;;;25.11;40.67;100109.19;6050690;28;20030;-66
2022/06/08 12:02:36;;;;;;;;;;;;;;;24.56;41.65;100109.34;6050136;28;20041;-66
2022/06/08 12:05:32;;;;;;;1.95;1.52;;;;;;;23.94;44.08;100106.03;6051814;28;20024;-66
2022/06/08 12:08:33;;;;;;;3.10;1.70;;;;;;;24.47;43.43;100096.47;6056956;28;20019;-66
2022/06/08 12:11:30;;;;;;;2.72;1.90;;;;;;;24.94;42.47;100088.66;6051012;28;20108;-67
2022/06/08 12:14:31;;;;;;;2.45;1.63;;;;;;;24.06;43.45;100097.78;6051786;28;20049;-67
2022/06/08 12:17:38;;;;;;;2.40;1.77;;;;;;;24.04;43.68;100094.50;6051566;28;20034;-66
2022/06/08 12:20:40;;;;;;;3.20;1.90;;;;;;;23.72;43.99;100093.47;6050938;28;20083;-66
2022/06/08 12:23:41;;;;;;;6.75;2.30;;;;;;;23.11;45.58;100100.50;6050845;28;20117;-66
2022/06/08 12:26:40;;;;;;;6.40;2.05;;;;;;;23.29;45.57;100099.50;6053164;28;20049;-66
2022/06/08 12:29:35;;;;;;;2.72;1.60;;;;;;;23.48;45.05;100090.13;6051165;28;20404;-66
2022/06/08 12:32:36;;;;;;;3.23;2.20;;;;;;;23.60;45.25;100070.00;6050736;28;20030;-66
2022/06/08 12:35:38;;;;;;;2.95;1.98;;;;;;;23.80;44.73;100076.81;6063909;28;20120;-66
2022/06/08 12:38:36;;;;;;;3.00;1.70;;;;;;;24.14;42.77;100070.28;6051069;28;20030;-66
2022/06/08 12:42:00;;;;;;;5.13;2.53;;;;;;;24.76;42.22;100066.19;6066930;28;20210;-66
2022/06/08 12:44:58;;;;;;;4.93;2.30;;;;;;;24.82;44.68;100057.06;6052701;28;20378;-66
2022/06/08 12:47:53;;;;;;;3.17;2.00;;;;;;;25.28;43.91;100066.47;6050651;28;20021;-66
2022/06/08 12:50:50;;;;;;;2.33;1.70;;;;;;;25.30;43.01;100060.81;6049887;28;20065;-66
2022/06/08 12:53:46;;;;;;;3.38;2.15;;;;;;;25.33;41.14;100049.41;6040309;28;20021;-66
2022/06/08 12:56:43;;;;;;;3.85;1.95;;;;;;;25.86;40.56;100054.75;6050328;28;20385;-66
2022/06/08 12:59:39;;;;;;;2.35;1.65;;;;;;;26.48;39.89;100054.00;6069522;28;20385;-66
2022/06/08 13:02:37;;;;;;;2.77;2.07;;;;;;;26.46;39.93;100037.13;6049711;28;20034;-66
2022/06/08 13:05:35;;;;;;;2.97;2.08;;;;;;;26.77;36.81;100029.88;6050180;28;20355;-66
2022/06/08 13:08:31;;;;;;;3.15;2.15;;;;;;;26.71;36.92;100033.66;6050168;28;20034;-66
2022/06/08 13:11:26;;;;;;;3.13;1.75;;;;;;;27.83;36.21;100025.28;6049565;28;20143;-67
2022/06/08 13:14:22;;;;;;;2.45;1.92;;;;;;;27.94;37.94;100024.19;6050276;28;20540;-67
2022/06/08 13:17:18;;;;;;;2.90;2.10;;;;;;;28.16;35.69;100016.50;6050417;28;20034;-66
2022/06/08 13:20:19;;;;;;;3.75;2.38;;;;;;;27.87;36.48;100022.84;6049522;28;20116;-67
2022/06/08 13:23:15;;;;;;;4.22;2.13;;;;;;;28.35;34.80;100022.16;6049950;28;20034;-67
2022/06/08 13:26:15;;;;;;;3.28;2.05;;;;;;;27.65;35.69;100004.09;6049807;28;20079;-66
2022/06/08 13:29:12;;;;;;;4.03;2.40;;;;;;;27.77;35.35;100010.91;6050040;28;20482;-66
2022/06/08 13:32:18;;;;;;;3.95;2.38;;;;;;;26.22;38.08;100011.47;6054484;28;20472;-66
2022/06/08 13:35:19;;;;;;;3.97;2.40;;;;;;;24.99;39.59;100005.41;6053138;28;20022;-66
2022/06/08 13:38:14;;;;;;;5.03;2.17;;;;;;;24.73;40.75;99996.16;6049700;28;20492;-66
2022/06/08 13:41:09;;;;;;;4.20;2.67;;;;;;;25.75;39.19;100004.13;6048485;28;20025;-66
2022/06/08 13:44:24;;;;;;;3.93;2.50;;;;;;;26.10;38.82;99997.25;6049358;28;20083;-66
2022/06/08 13:47:27;;;;;;;4.25;2.35;;;;;;;25.41;39.09;99991.94;6048605;28;20033;-66
2022/06/08 13:50:28;;;;;;;3.10;1.90;;;;;;;25.30;40.31;99998.38;6054039;28;20033;-66
2022/06/08 13:53:26;;;;;;;3.42;2.00;;;;;;;25.18;40.18;99992.28;6046360;28;20036;-66
2022/06/08 13:56:22;;;;;;;3.55;1.98;;;;;;;25.39;39.58;99991.34;6049471;28;20026;-66
2022/06/08 13:59:18;;;;;;;3.13;1.98;;;;;;;25.85;38.97;99990.59;6049244;28;20037;-66
2022/06/08 14:02:41;;;;;;;5.38;2.40;;;;;;;24.55;41.41;99993.81;6048651;28;20465;-66
2022/06/08 14:15:20;;;;;;;6.70;1.70;;;;;;;23.99;44.20;99983.34;6049547;28;20428;-66
2022/06/08 14:18:26;;;;;;;2.88;1.70;;;;;;;23.92;44.50;99977.28;6049079;28;20030;-66
2022/06/08 14:21:22;;;;;;;3.17;1.73;;;;;;;23.85;43.71;99974.78;6048620;28;20033;-66